sensor_id;sensor_type;location;lat;lon;timestamp;pressure;altitude;pressure_sealevel;temperature;humidity
29169;BME280;16219;42.864;23.360;2023-03-26T00:00:47;95214.38;;;11.01;100.00
29169;BME280;16219;42.864;23.360;2023-03-26T00:03:20;95312.00;;;11.56;100.00
29169;BME280;16219;42.864;23.360;2023-03-26T00:05:48;95320.13;;;11.63;100.00
29169;BME280;16219;42.864;23.360;2023-03-26T00:08:16;95299.47;;;11.77;100.00
29169;BME280;16219;42.864;23.360;2023-03-26T00:10:43;95208.56;;;10.96;100.00
29169;BME280;16219;42.864;23.360;2023-03-26T00:13:11;95308.88;;;11.54;100.00
29169;BME280;16219;42.864;23.360;2023-03-26T00:15:38;95238.81;;;11.11;100.00
29169;BME280;16219;42.864;23.360;2023-03-26T00:18:06;95231.31;;;11.00;100.00
29169;BME280;16219;42.864;23.360;2023-03-26T00:20:36;95260.94;;;11.18;100.00
29169;BME280;16219;42.864;23.360;2023-03-26T00:23:03;95215.84;;;10.78;100.00
29169;BME280;16219;42.864;23.360;2023-03-26T00:25:32;95278.44;;;11.23;100.00
29169;BME280;16219;42.864;23.360;2023-03-26T00:28:00;95292.38;;;11.11;100.00
29169;BME280;16219;42.864;23.360;2023-03-26T00:30:28;95199.06;;;10.49;100.00
29169;BME280;16219;42.864;23.360;2023-03-26T00:32:56;95216.84;;;10.32;100.00
29169;BME280;16219;42.864;23.360;2023-03-26T00:35:24;95279.75;;;10.84;100.00
29169;BME280;16219;42.864;23.360;2023-03-26T00:37:52;95289.34;;;10.88;100.00
29169;BME280;16219;42.864;23.360;2023-03-26T00:40:20;95296.34;;;10.84;100.00
29169;BME280;16219;42.864;23.360;2023-03-26T00:42:48;95214.38;;;10.06;100.00
29169;BME280;16219;42.864;23.360;2023-03-26T00:45:16;95234.63;;;10.14;100.00
29169;BME280;16219;42.864;23.360;2023-03-26T00:47:46;95315.59;;;10.64;100.00
29169;BME280;16219;42.864;23.360;2023-03-26T00:50:13;95253.13;;;10.05;100.00
29169;BME280;16219;42.864;23.360;2023-03-26T00:52:42;95292.00;;;10.17;100.00
29169;BME280;16219;42.864;23.360;2023-03-26T00:55:11;95323.81;;;10.41;100.00
29169;BME280;16219;42.864;23.360;2023-03-26T00:57:38;95312.09;;;10.30;100.00
29169;BME280;16219;42.864;23.360;2023-03-26T01:00:08;95238.88;;;9.76;100.00
29169;BME280;16219;42.864;23.360;2023-03-26T01:02:41;95311.47;;;10.33;100.00
29169;BME280;16219;42.864;23.360;2023-03-26T01:05:42;95250.69;;;9.70;100.00
29169;BME280;16219;42.864;23.360;2023-03-26T01:08:18;95316.91;;;10.19;100.00
29169;BME280;16219;42.864;23.360;2023-03-26T01:10:49;95324.97;;;10.23;100.00
29169;BME280;16219;42.864;23.360;2023-03-26T01:13:19;95317.38;;;10.30;100.00
29169;BME280;16219;42.864;23.360;2023-03-26T01:15:47;95332.75;;;10.28;100.00
29169;BME280;16219;42.864;23.360;2023-03-26T01:18:18;95336.38;;;10.06;100.00
29169;BME280;16219;42.864;23.360;2023-03-26T01:20:53;95243.09;;;9.39;100.00
29169;BME280;16219;42.864;23.360;2023-03-26T01:23:37;95340.16;;;9.96;100.00
29169;BME280;16219;42.864;23.360;2023-03-26T01:26:14;95259.00;;;9.51;100.00
29169;BME280;16219;42.864;23.360;2023-03-26T01:28:43;95336.63;;;9.84;100.00
29169;BME280;16219;42.864;23.360;2023-03-26T01:31:27;95257.13;;;9.05;100.00
29169;BME280;16219;42.864;23.360;2023-03-26T01:34:07;95346.09;;;9.76;100.00
29169;BME280;16219;42.864;23.360;2023-03-26T01:36:42;95274.22;;;9.29;100.00
29169;BME280;16219;42.864;23.360;2023-03-26T01:49:55;95332.34;;;9.70;100.00
29169;BME280;16219;42.864;23.360;2023-03-26T01:52:24;95293.69;;;9.45;100.00
29169;BME280;16219;42.864;23.360;2023-03-26T01:54:53;95334.94;;;9.79;100.00
29169;BME280;16219;42.864;23.360;2023-03-26T01:57:31;95332.59;;;9.86;100.00
29169;BME280;16219;42.864;23.360;2023-03-26T06:34:42;95480.16;;;10.50;100.00
29169;BME280;16219;42.864;23.360;2023-03-26T06:37:10;95535.88;;;11.08;100.00
29169;BME280;16219;42.864;23.360;2023-03-26T06:58:33;95525.19;;;11.34;100.00
29169;BME280;16219;42.864;23.360;2023-03-26T07:01:23;95477.19;;;11.11;100.00
29169;BME280;16219;42.864;23.360;2023-03-26T07:04:09;95465.72;;;11.28;100.00
29169;BME280;16219;42.864;23.360;2023-03-26T07:09:51;95468.69;;;11.68;92.77
29169;BME280;16219;42.864;23.360;2023-03-26T07:12:44;95495.41;;;12.21;95.15
29169;BME280;16219;42.864;23.360;2023-03-26T07:15:26;95547.41;;;12.87;90.51
29169;BME280;16219;42.864;23.360;2023-03-26T07:18:14;95447.84;;;12.45;74.36
29169;BME280;16219;42.864;23.360;2023-03-26T07:20:44;95447.16;;;12.73;84.41
29169;BME280;16219;42.864;23.360;2023-03-26T07:23:12;95506.06;;;13.31;72.38
29169;BME280;16219;42.864;23.360;2023-03-26T07:25:57;95530.69;;;13.72;77.14
29169;BME280;16219;42.864;23.360;2023-03-26T07:28:39;95510.31;;;13.60;92.52
29169;BME280;16219;42.864;23.360;2023-03-26T07:31:39;95521.59;;;13.85;97.62
29169;BME280;16219;42.864;23.360;2023-03-26T07:34:50;95497.81;;;13.89;93.88
29169;BME280;16219;42.864;23.360;2023-03-26T07:37:46;95436.41;;;13.18;91.36
29169;BME280;16219;42.864;23.360;2023-03-26T07:40:53;95479.88;;;13.70;96.01
29169;BME280;16219;42.864;23.360;2023-03-26T07:43:53;95476.25;;;13.62;88.29
29169;BME280;16219;42.864;23.360;2023-03-26T07:47:10;95482.19;;;13.99;90.51
29169;BME280;16219;42.864;23.360;2023-03-26T07:50:19;95535.94;;;14.40;83.31
29169;BME280;16219;42.864;23.360;2023-03-26T07:53:26;95538.06;;;14.35;90.52
29169;BME280;16219;42.864;23.360;2023-03-26T07:56:04;95537.81;;;14.40;87.02
29169;BME280;16219;42.864;23.360;2023-03-26T07:58:51;95518.94;;;14.13;76.49
29169;BME280;16219;42.864;23.360;2023-03-26T08:01:54;95476.44;;;13.41;83.06
29169;BME280;16219;42.864;23.360;2023-03-26T08:04:48;95487.03;;;13.41;93.64
29169;BME280;16219;42.864;23.360;2023-03-26T08:07:55;95451.53;;;13.18;91.75
29169;BME280;16219;42.864;23.360;2023-03-26T08:10:35;95522.31;;;13.70;90.25
29169;BME280;16219;42.864;23.360;2023-03-26T08:13:09;95526.03;;;13.81;86.91
29169;BME280;16219;42.864;23.360;2023-03-26T08:15:45;95465.59;;;13.46;86.54
29169;BME280;16219;42.864;23.360;2023-03-26T08:18:28;95442.88;;;13.45;77.81
29169;BME280;16219;42.864;23.360;2023-03-26T08:21:03;95458.88;;;13.77;75.93
29169;BME280;16219;42.864;23.360;2023-03-26T08:23:36;95455.88;;;13.79;83.11
29169;BME280;16219;42.864;23.360;2023-03-26T08:26:10;95448.94;;;13.74;81.34
29169;BME280;16219;42.864;23.360;2023-03-26T08:28:49;95446.34;;;13.62;89.30
29169;BME280;16219;42.864;23.360;2023-03-26T08:31:29;95513.47;;;14.22;89.19
29169;BME280;16219;42.864;23.360;2023-03-26T08:33:59;95457.16;;;13.69;88.26
29169;BME280;16219;42.864;23.360;2023-03-26T08:36:28;95486.25;;;13.81;87.59
29169;BME280;16219;42.864;23.360;2023-03-26T08:38:55;95488.16;;;13.96;81.41
29169;BME280;16219;42.864;23.360;2023-03-26T08:42:00;95470.34;;;13.81;80.35
29169;BME280;16219;42.864;23.360;2023-03-26T08:45:07;95445.00;;;13.68;84.48
29169;BME280;16219;42.864;23.360;2023-03-26T08:51:05;95437.41;;;13.14;74.93
29169;BME280;16219;42.864;23.360;2023-03-26T08:53:55;95533.13;;;13.77;79.35
29169;BME280;16219;42.864;23.360;2023-03-26T08:56:31;95431.09;;;13.18;75.79
29169;BME280;16219;42.864;23.360;2023-03-26T09:02:58;95443.28;;;14.04;84.20
29169;BME280;16219;42.864;23.360;2023-03-26T09:09:07;95476.34;;;15.01;78.50
29169;BME280;16219;42.864;23.360;2023-03-26T09:12:14;95514.19;;;15.14;70.38
29169;BME280;16219;42.864;23.360;2023-03-26T09:20:10;95456.16;;;15.16;65.05
29169;BME280;16219;42.864;23.360;2023-03-26T09:22:58;95469.63;;;15.62;63.84
29169;BME280;16219;42.864;23.360;2023-03-26T09:26:03;95421.06;;;15.26;63.54
29169;BME280;16219;42.864;23.360;2023-03-26T09:32:25;95472.13;;;15.35;59.75
29169;BME280;16219;42.864;23.360;2023-03-26T09:35:13;95417.13;;;15.20;62.78
29169;BME280;16219;42.864;23.360;2023-03-26T09:37:56;95396.50;;;14.94;57.61
29169;BME280;16219;42.864;23.360;2023-03-26T09:40:35;95387.06;;;14.96;56.68
29169;BME280;16219;42.864;23.360;2023-03-26T09:43:33;95385.56;;;15.34;59.65
29169;BME280;16219;42.864;23.360;2023-03-26T09:46:17;95369.34;;;15.62;56.95
29169;BME280;16219;42.864;23.360;2023-03-26T09:49:20;95393.50;;;15.54;58.53
29169;BME280;16219;42.864;23.360;2023-03-26T09:52:05;95414.78;;;15.73;57.46
29169;BME280;16219;42.864;23.360;2023-03-26T09:57:49;95436.75;;;15.89;49.46
29169;BME280;16219;42.864;23.360;2023-03-26T10:00:35;95355.75;;;15.44;50.21
29169;BME280;16219;42.864;23.360;2023-03-26T10:03:21;95436.78;;;16.12;51.05
29169;BME280;16219;42.864;23.360;2023-03-26T10:06:05;95378.28;;;16.16;49.62
29169;BME280;16219;42.864;23.360;2023-03-26T10:09:06;95423.69;;;16.49;50.01
29169;BME280;16219;42.864;23.360;2023-03-26T10:11:53;95426.56;;;16.64;55.67
29169;BME280;16219;42.864;23.360;2023-03-26T10:14:27;95392.88;;;16.48;49.98
29169;BME280;16219;42.864;23.360;2023-03-26T10:17:13;95426.31;;;16.23;47.48
29169;BME280;16219;42.864;23.360;2023-03-26T10:19:55;95415.66;;;16.00;48.37
29169;BME280;16219;42.864;23.360;2023-03-26T10:22:37;95401.75;;;15.87;48.68
29169;BME280;16219;42.864;23.360;2023-03-26T10:25:28;95398.53;;;15.78;49.78
29169;BME280;16219;42.864;23.360;2023-03-26T10:28:07;95393.06;;;15.67;49.43
29169;BME280;16219;42.864;23.360;2023-03-26T10:30:45;95384.56;;;16.27;51.77
29169;BME280;16219;42.864;23.360;2023-03-26T10:33:23;95381.72;;;16.66;48.67
29169;BME280;16219;42.864;23.360;2023-03-26T10:36:07;95378.63;;;16.64;45.63
29169;BME280;16219;42.864;23.360;2023-03-26T10:38:51;95378.63;;;16.64;46.09
29169;BME280;16219;42.864;23.360;2023-03-26T10:41:27;95366.41;;;16.59;45.15
29169;BME280;16219;42.864;23.360;2023-03-26T10:44:24;95373.66;;;16.13;47.20
29169;BME280;16219;42.864;23.360;2023-03-26T10:47:27;95370.09;;;16.02;46.33
29169;BME280;16219;42.864;23.360;2023-03-26T10:50:25;95363.03;;;16.13;46.56
29169;BME280;16219;42.864;23.360;2023-03-26T10:52:57;95363.09;;;16.16;46.60
29169;BME280;16219;42.864;23.360;2023-03-26T10:55:30;95365.16;;;16.04;45.55
29169;BME280;16219;42.864;23.360;2023-03-26T10:58:07;95362.81;;;15.98;45.83
29169;BME280;16219;42.864;23.360;2023-03-26T11:00:40;95348.59;;;16.14;45.85
29169;BME280;16219;42.864;23.360;2023-03-26T11:03:22;95351.81;;;16.49;44.91
29169;BME280;16219;42.864;23.360;2023-03-26T11:05:57;95352.00;;;16.64;44.63
29169;BME280;16219;42.864;23.360;2023-03-26T11:08:35;95350.69;;;16.77;45.63
29169;BME280;16219;42.864;23.360;2023-03-26T11:11:15;95332.16;;;17.18;47.34
29169;BME280;16219;42.864;23.360;2023-03-26T11:13:52;95339.75;;;17.49;43.92
29169;BME280;16219;42.864;23.360;2023-03-26T11:16:28;95328.81;;;17.62;43.16
29169;BME280;16219;42.864;23.360;2023-03-26T11:19:01;95318.09;;;17.55;40.90
29169;BME280;16219;42.864;23.360;2023-03-26T11:21:36;95319.16;;;17.46;42.83
29169;BME280;16219;42.864;23.360;2023-03-26T11:24:23;95325.75;;;17.60;43.12
29169;BME280;16219;42.864;23.360;2023-03-26T11:26:59;95320.91;;;17.69;43.15
29169;BME280;16219;42.864;23.360;2023-03-26T11:29:45;95319.47;;;17.41;41.40
29169;BME280;16219;42.864;23.360;2023-03-26T11:32:19;95317.19;;;17.40;41.73
29169;BME280;16219;42.864;23.360;2023-03-26T11:34:57;95302.19;;;17.28;41.54
29169;BME280;16219;42.864;23.360;2023-03-26T11:37:32;95297.16;;;17.19;41.54
29169;BME280;16219;42.864;23.360;2023-03-26T11:40:04;95287.06;;;17.39;42.27
29169;BME280;16219;42.864;23.360;2023-03-26T11:42:36;95283.13;;;17.63;43.24
29169;BME280;16219;42.864;23.360;2023-03-26T11:45:05;95278.69;;;17.78;41.20
29169;BME280;16219;42.864;23.360;2023-03-26T11:47:39;95272.75;;;17.55;40.31
29169;BME280;16219;42.864;23.360;2023-03-26T11:50:14;95270.78;;;17.48;41.73
29169;BME280;16219;42.864;23.360;2023-03-26T11:52:44;95275.09;;;17.60;44.40
29169;BME280;16219;42.864;23.360;2023-03-26T11:55:12;95262.31;;;17.76;42.33
29169;BME280;16219;42.864;23.360;2023-03-26T11:57:45;95261.22;;;17.84;40.98
29169;BME280;16219;42.864;23.360;2023-03-26T12:00:17;95257.59;;;17.66;40.94
29169;BME280;16219;42.864;23.360;2023-03-26T12:02:47;95252.94;;;17.56;41.79
29169;BME280;16219;42.864;23.360;2023-03-26T12:05:17;95240.44;;;17.67;41.57
29169;BME280;16219;42.864;23.360;2023-03-26T12:07:51;95245.91;;;17.78;40.82
29169;BME280;16219;42.864;23.360;2023-03-26T12:10:24;95229.59;;;17.45;40.54
29169;BME280;16219;42.864;23.360;2023-03-26T12:12:55;95253.63;;;17.49;39.88
29169;BME280;16219;42.864;23.360;2023-03-26T12:15:23;95240.25;;;17.42;39.43
29169;BME280;16219;42.864;23.360;2023-03-26T12:17:52;95238.41;;;17.49;40.17
29169;BME280;16219;42.864;23.360;2023-03-26T12:20:33;95228.38;;;17.77;40.63
29169;BME280;16219;42.864;23.360;2023-03-26T12:23:05;95231.19;;;17.94;41.57
29169;BME280;16219;42.864;23.360;2023-03-26T12:25:34;95234.06;;;17.75;40.30
29169;BME280;16219;42.864;23.360;2023-03-26T12:28:09;95231.19;;;17.54;41.20
29169;BME280;16219;42.864;23.360;2023-03-26T12:30:51;95226.66;;;17.58;39.35
29169;BME280;16219;42.864;23.360;2023-03-26T12:33:24;95225.59;;;17.66;38.83
29169;BME280;16219;42.864;23.360;2023-03-26T12:35:53;95222.50;;;17.60;40.14
29169;BME280;16219;42.864;23.360;2023-03-26T12:38:29;95202.75;;;17.68;39.64
29169;BME280;16219;42.864;23.360;2023-03-26T12:41:08;95201.72;;;17.80;39.57
29169;BME280;16219;42.864;23.360;2023-03-26T12:43:38;95212.16;;;17.52;38.81
29169;BME280;16219;42.864;23.360;2023-03-26T12:46:22;95201.59;;;17.69;41.48
29169;BME280;16219;42.864;23.360;2023-03-26T12:48:52;95197.63;;;17.49;38.83
29169;BME280;16219;42.864;23.360;2023-03-26T12:51:33;95204.50;;;17.46;39.53
29169;BME280;16219;42.864;23.360;2023-03-26T12:54:20;95193.41;;;17.44;40.42
29169;BME280;16219;42.864;23.360;2023-03-26T12:57:06;95197.25;;;17.47;39.93
29169;BME280;16219;42.864;23.360;2023-03-26T12:59:59;95189.75;;;17.19;39.44
29169;BME280;16219;42.864;23.360;2023-03-26T13:02:47;95196.06;;;17.44;40.47
29169;BME280;16219;42.864;23.360;2023-03-26T13:05:30;95192.56;;;17.78;40.95
29169;BME280;16219;42.864;23.360;2023-03-26T13:08:10;95188.38;;;17.80;39.15
29169;BME280;16219;42.864;23.360;2023-03-26T13:10:49;95193.03;;;17.42;39.44
29169;BME280;16219;42.864;23.360;2023-03-26T13:13:44;95188.97;;;17.15;39.50
29169;BME280;16219;42.864;23.360;2023-03-26T13:16:23;95185.34;;;17.37;40.95
29169;BME280;16219;42.864;23.360;2023-03-26T13:18:54;95190.47;;;17.57;39.04
29169;BME280;16219;42.864;23.360;2023-03-26T13:21:31;95193.03;;;17.42;39.07
29169;BME280;16219;42.864;23.360;2023-03-26T13:24:14;95192.22;;;17.38;39.98
29169;BME280;16219;42.864;23.360;2023-03-26T13:26:56;95186.91;;;17.38;39.19
29169;BME280;16219;42.864;23.360;2023-03-26T13:29:34;95193.41;;;17.44;38.91
29169;BME280;16219;42.864;23.360;2023-03-26T13:32:08;95193.75;;;17.39;38.50
29169;BME280;16219;42.864;23.360;2023-03-26T13:34:43;95205.03;;;17.22;37.91
29169;BME280;16219;42.864;23.360;2023-03-26T13:37:21;95178.75;;;17.20;37.51
29169;BME280;16219;42.864;23.360;2023-03-26T13:39:59;95180.06;;;17.44;37.72
29169;BME280;16219;42.864;23.360;2023-03-26T13:42:44;95171.09;;;17.67;39.05
29169;BME280;16219;42.864;23.360;2023-03-26T13:45:23;95178.69;;;17.61;38.76
29169;BME280;16219;42.864;23.360;2023-03-26T13:47:56;95180.22;;;17.62;36.92
29169;BME280;16219;42.864;23.360;2023-03-26T13:50:26;95161.56;;;17.66;37.24
29169;BME280;16219;42.864;23.360;2023-03-26T13:52:56;95179.69;;;17.90;38.54
29169;BME280;16219;42.864;23.360;2023-03-26T13:55:28;95180.44;;;17.91;36.68
29169;BME280;16219;42.864;23.360;2023-03-26T13:58:01;95172.25;;;17.69;36.30
29169;BME280;16219;42.864;23.360;2023-03-26T14:00:44;95177.84;;;17.50;36.81
29169;BME280;16219;42.864;23.360;2023-03-26T14:03:17;95174.84;;;17.55;36.87
29169;BME280;16219;42.864;23.360;2023-03-26T14:05:50;95174.56;;;17.67;36.81
29169;BME280;16219;42.864;23.360;2023-03-26T14:08:21;95168.81;;;17.65;36.66
29169;BME280;16219;42.864;23.360;2023-03-26T14:10:53;95164.63;;;17.64;35.79
29169;BME280;16219;42.864;23.360;2023-03-26T14:13:25;95155.03;;;17.56;35.49
29169;BME280;16219;42.864;23.360;2023-03-26T14:16:01;95155.97;;;17.30;34.25
29169;BME280;16219;42.864;23.360;2023-03-26T14:18:36;95166.94;;;17.21;35.33
29169;BME280;16219;42.864;23.360;2023-03-26T14:21:23;95152.38;;;17.12;36.03
29169;BME280;16219;42.864;23.360;2023-03-26T14:24:22;95161.97;;;17.20;36.32
29169;BME280;16219;42.864;23.360;2023-03-26T14:27:05;95165.69;;;17.12;35.23
29169;BME280;16219;42.864;23.360;2023-03-26T14:29:56;95172.59;;;17.13;35.50
29169;BME280;16219;42.864;23.360;2023-03-26T14:32:35;95158.41;;;17.05;35.78
29169;BME280;16219;42.864;23.360;2023-03-26T14:35:22;95160.69;;;17.07;34.90
29169;BME280;16219;42.864;23.360;2023-03-26T14:40:55;95159.53;;;17.01;35.38
29169;BME280;16219;42.864;23.360;2023-03-26T14:43:48;95162.22;;;17.04;35.88
29169;BME280;16219;42.864;23.360;2023-03-26T14:46:36;95160.47;;;16.82;34.23
29169;BME280;16219;42.864;23.360;2023-03-26T14:49:31;95160.44;;;16.78;35.61
29169;BME280;16219;42.864;23.360;2023-03-26T14:52:09;95161.25;;;16.82;37.01
29169;BME280;16219;42.864;23.360;2023-03-26T14:54:42;95145.94;;;16.76;35.01
29169;BME280;16219;42.864;23.360;2023-03-26T14:57:23;95150.78;;;16.66;35.18
29169;BME280;16219;42.864;23.360;2023-03-26T15:00:30;95156.44;;;16.65;36.20
29169;BME280;16219;42.864;23.360;2023-03-26T15:07:01;95168.91;;;16.54;33.76
29169;BME280;16219;42.864;23.360;2023-03-26T15:13:09;95156.38;;;16.24;31.91
29169;BME280;16219;42.864;23.360;2023-03-26T15:16:22;95158.28;;;16.23;32.15
29169;BME280;16219;42.864;23.360;2023-03-26T15:25:30;95177.59;;;15.90;32.41
29169;BME280;16219;42.864;23.360;2023-03-26T15:28:38;95165.72;;;15.84;33.18
29169;BME280;16219;42.864;23.360;2023-03-26T15:31:30;95162.28;;;15.84;33.20
29169;BME280;16219;42.864;23.360;2023-03-26T15:40:30;95176.16;;;15.70;35.61
29169;BME280;16219;42.864;23.360;2023-03-26T15:43:09;95172.69;;;15.66;36.89
29169;BME280;16219;42.864;23.360;2023-03-26T15:45:39;95174.72;;;15.53;35.38
29169;BME280;16219;42.864;23.360;2023-03-26T15:51:31;95169.84;;;15.32;35.66
29169;BME280;16219;42.864;23.360;2023-03-26T15:54:08;95169.16;;;15.35;36.74
29169;BME280;16219;42.864;23.360;2023-03-26T15:56:57;95182.72;;;15.30;35.76
29169;BME280;16219;42.864;23.360;2023-03-26T15:59:39;95189.50;;;15.28;37.36
29169;BME280;16219;42.864;23.360;2023-03-26T16:02:21;95183.44;;;15.27;37.63
29169;BME280;16219;42.864;23.360;2023-03-26T16:04:53;95181.16;;;15.25;38.07
29169;BME280;16219;42.864;23.360;2023-03-26T16:07:39;95176.47;;;15.19;37.73
29169;BME280;16219;42.864;23.360;2023-03-26T16:10:19;95193.41;;;15.11;39.98
29169;BME280;16219;42.864;23.360;2023-03-26T16:13:19;95191.91;;;14.90;41.26
29169;BME280;16219;42.864;23.360;2023-03-26T16:15:52;95188.63;;;14.78;42.03
29169;BME280;16219;42.864;23.360;2023-03-26T16:18:40;95197.66;;;14.73;42.02
29169;BME280;16219;42.864;23.360;2023-03-26T16:21:37;95185.50;;;14.72;42.23
29169;BME280;16219;42.864;23.360;2023-03-26T16:24:25;95193.47;;;14.53;43.54
29169;BME280;16219;42.864;23.360;2023-03-26T16:27:02;95189.19;;;14.48;44.42
29169;BME280;16219;42.864;23.360;2023-03-26T16:32:44;95199.59;;;14.37;44.52
29169;BME280;16219;42.864;23.360;2023-03-26T16:35:39;95191.34;;;14.23;43.56
29169;BME280;16219;42.864;23.360;2023-03-26T16:38:12;95192.56;;;14.10;43.87
29169;BME280;16219;42.864;23.360;2023-03-26T16:40:55;95203.34;;;13.82;46.25
29169;BME280;16219;42.864;23.360;2023-03-26T16:43:44;95190.16;;;13.85;46.78
29169;BME280;16219;42.864;23.360;2023-03-26T16:46:26;95191.78;;;13.74;46.75
29169;BME280;16219;42.864;23.360;2023-03-26T16:48:58;95190.78;;;13.63;47.33
29169;BME280;16219;42.864;23.360;2023-03-26T16:51:41;95187.53;;;13.54;46.95
29169;BME280;16219;42.864;23.360;2023-03-26T16:54:19;95179.84;;;13.48;47.73
29169;BME280;16219;42.864;23.360;2023-03-26T16:56:56;95177.06;;;13.25;45.87
29169;BME280;16219;42.864;23.360;2023-03-26T16:59:52;95182.75;;;13.28;47.46
29169;BME280;16219;42.864;23.360;2023-03-26T17:02:30;95183.31;;;13.21;48.20
29169;BME280;16219;42.864;23.360;2023-03-26T17:05:11;95184.34;;;13.16;49.39
29169;BME280;16219;42.864;23.360;2023-03-26T17:07:47;95175.69;;;13.04;50.35
29169;BME280;16219;42.864;23.360;2023-03-26T17:10:22;95181.94;;;12.95;52.26
29169;BME280;16219;42.864;23.360;2023-03-26T17:13:02;95182.88;;;12.87;53.35
29169;BME280;16219;42.864;23.360;2023-03-26T17:15:39;95183.34;;;12.77;55.03
29169;BME280;16219;42.864;23.360;2023-03-26T17:21:18;95173.97;;;12.51;58.07
29169;BME280;16219;42.864;23.360;2023-03-26T17:24:06;95110.72;;;11.78;60.18
29169;BME280;16219;42.864;23.360;2023-03-26T17:26:46;95199.97;;;12.21;67.61
29169;BME280;16219;42.864;23.360;2023-03-26T17:29:24;95145.75;;;11.75;68.97
29169;BME280;16219;42.864;23.360;2023-03-26T17:31:59;95168.88;;;11.90;64.71
29169;BME280;16219;42.864;23.360;2023-03-26T17:34:51;95198.03;;;12.06;65.06
29169;BME280;16219;42.864;23.360;2023-03-26T17:37:45;95164.78;;;11.81;60.79
29169;BME280;16219;42.864;23.360;2023-03-26T17:40:44;95145.75;;;11.75;60.27
29169;BME280;16219;42.864;23.360;2023-03-26T17:43:37;95094.03;;;11.49;61.79
29169;BME280;16219;42.864;23.360;2023-03-26T17:48:42;95114.06;;;11.50;64.01
29169;BME280;16219;42.864;23.360;2023-03-26T17:51:26;95197.47;;;12.13;61.05
29169;BME280;16219;42.864;23.360;2023-03-26T17:53:58;95124.88;;;11.33;66.44
29169;BME280;16219;42.864;23.360;2023-03-26T17:56:28;95190.25;;;11.85;69.88
29169;BME280;16219;42.864;23.360;2023-03-26T17:58:59;95193.22;;;11.84;77.26
29169;BME280;16219;42.864;23.360;2023-03-26T18:01:36;95128.16;;;11.42;76.19
29169;BME280;16219;42.864;23.360;2023-03-26T18:04:06;95193.06;;;11.80;69.23
29169;BME280;16219;42.864;23.360;2023-03-26T18:06:53;95184.28;;;11.64;70.16
29169;BME280;16219;42.864;23.360;2023-03-26T18:09:42;95188.47;;;11.52;69.13
29169;BME280;16219;42.864;23.360;2023-03-26T18:12:40;95217.31;;;11.58;72.82
29169;BME280;16219;42.864;23.360;2023-03-26T18:15:33;95165.34;;;11.37;74.80
29169;BME280;16219;42.864;23.360;2023-03-26T18:18:12;95208.97;;;11.56;73.53
29169;BME280;16219;42.864;23.360;2023-03-26T18:20:43;95208.97;;;11.56;74.69
29169;BME280;16219;42.864;23.360;2023-03-26T18:23:21;95125.94;;;10.95;78.33
29169;BME280;16219;42.864;23.360;2023-03-26T18:25:57;95124.41;;;10.94;78.39
29169;BME280;16219;42.864;23.360;2023-03-26T18:28:30;95124.09;;;10.96;81.69
29169;BME280;16219;42.864;23.360;2023-03-26T18:31:08;95145.88;;;11.05;86.16
29169;BME280;16219;42.864;23.360;2023-03-26T18:33:42;95135.59;;;10.91;89.60
29169;BME280;16219;42.864;23.360;2023-03-26T18:36:10;95181.63;;;11.15;91.58
29169;BME280;16219;42.864;23.360;2023-03-26T18:38:38;95200.78;;;11.24;91.06
29169;BME280;16219;42.864;23.360;2023-03-26T18:41:16;95140.00;;;10.87;88.81
29169;BME280;16219;42.864;23.360;2023-03-26T18:43:45;95125.91;;;10.71;94.50
29169;BME280;16219;42.864;23.360;2023-03-26T18:46:13;95136.97;;;10.52;98.91
29169;BME280;16219;42.864;23.360;2023-03-26T18:48:42;95179.41;;;10.92;100.00
29169;BME280;16219;42.864;23.360;2023-03-26T18:51:11;95180.50;;;11.04;98.96
29169;BME280;16219;42.864;23.360;2023-03-26T18:53:48;95189.94;;;10.92;98.29
29169;BME280;16219;42.864;23.360;2023-03-26T19:07:03;95127.13;;;10.19;97.25
29169;BME280;16219;42.864;23.360;2023-03-26T19:09:35;95159.03;;;10.47;99.96
29169;BME280;16219;42.864;23.360;2023-03-26T19:12:05;95131.66;;;9.98;100.00
29169;BME280;16219;42.864;23.360;2023-03-26T19:14:50;95146.22;;;10.25;100.00
29169;BME280;16219;42.864;23.360;2023-03-26T19:17:20;95115.66;;;10.03;100.00
29169;BME280;16219;42.864;23.360;2023-03-26T19:19:48;95165.59;;;10.41;100.00
29169;BME280;16219;42.864;23.360;2023-03-26T19:24:56;95145.91;;;10.18;100.00
29169;BME280;16219;42.864;23.360;2023-03-26T19:27:24;95117.97;;;10.05;100.00
29169;BME280;16219;42.864;23.360;2023-03-26T19:29:52;95129.84;;;10.11;100.00
29169;BME280;16219;42.864;23.360;2023-03-26T19:32:27;95055.16;;;9.52;100.00
29169;BME280;16219;42.864;23.360;2023-03-26T19:35:19;95080.53;;;9.57;100.00
29169;BME280;16219;42.864;23.360;2023-03-26T19:40:40;95137.81;;;9.81;99.64
29169;BME280;16219;42.864;23.360;2023-03-26T19:43:10;95108.97;;;9.64;100.00
29169;BME280;16219;42.864;23.360;2023-03-26T19:45:39;95123.16;;;9.71;100.00
29169;BME280;16219;42.864;23.360;2023-03-26T19:48:07;95146.09;;;9.71;100.00
29169;BME280;16219;42.864;23.360;2023-03-26T19:50:41;95090.50;;;9.22;100.00
29169;BME280;16219;42.864;23.360;2023-03-26T20:25:49;95111.34;;;8.97;100.00
29169;BME280;16219;42.864;23.360;2023-03-26T20:28:20;95022.78;;;8.25;100.00
29169;BME280;16219;42.864;23.360;2023-03-26T20:30:49;95069.47;;;8.45;100.00
29169;BME280;16219;42.864;23.360;2023-03-26T20:33:20;95116.97;;;8.79;100.00
29169;BME280;16219;42.864;23.360;2023-03-26T20:35:50;95115.75;;;8.76;100.00
29169;BME280;16219;42.864;23.360;2023-03-26T20:38:18;95099.38;;;8.62;100.00
29169;BME280;16219;42.864;23.360;2023-03-26T20:40:48;95077.19;;;8.33;100.00
